createdAt,value
2023-12-09T00:03:35.662Z,26.58
2023-12-09T00:07:40.594Z,28.45
2023-12-09T00:11:43.658Z,27.73
2023-12-09T00:15:47.141Z,29.05
2023-12-09T00:19:50.273Z,28.63
2023-12-09T00:23:54.714Z,28.85
2023-12-09T00:27:57.781Z,34.33
2023-12-09T00:32:00.783Z,29.98
2023-12-09T00:36:03.986Z,29.10
2023-12-09T00:40:09.664Z,34.08
2023-12-09T00:44:12.799Z,27.13
2023-12-09T00:48:15.964Z,26.88
2023-12-09T00:52:19.150Z,25.10
2023-12-09T00:56:33.688Z,28.55
2023-12-09T01:00:38.474Z,28.52
2023-12-09T01:04:41.655Z,26.38
2023-12-09T01:08:44.988Z,28.40
2023-12-09T01:12:49.608Z,29.65
2023-12-09T01:16:52.632Z,26.67
2023-12-09T01:20:55.746Z,24.30
2023-12-09T01:24:58.868Z,27.35
2023-12-09T01:29:04.526Z,26.52
2023-12-09T01:33:07.956Z,25.58
2023-12-09T01:37:11.252Z,23.27
2023-12-09T01:41:14.376Z,25.98
2023-12-09T01:45:18.978Z,28.63
2023-12-09T01:49:22.465Z,25.00
2023-12-09T01:53:25.820Z,28.33
2023-12-09T01:57:29.974Z,26.27
2023-12-09T02:01:37.550Z,25.83
2023-12-09T02:05:41.613Z,25.38
2023-12-09T02:09:45.946Z,26.23
2023-12-09T02:13:58.274Z,30.45
2023-12-09T02:18:06.008Z,28.40
2023-12-09T02:22:10.798Z,27.77
2023-12-09T02:26:19.872Z,26.25
2023-12-09T02:30:30.479Z,27.57
2023-12-09T02:34:38.534Z,26.27
2023-12-09T02:38:43.783Z,25.88
2023-12-09T02:42:50.496Z,25.88
2023-12-09T02:46:57.126Z,29.08
2023-12-09T02:51:00.247Z,26.30
2023-12-09T02:55:06.159Z,27.40
2023-12-09T02:59:10.634Z,26.83
2023-12-09T03:03:13.831Z,27.95
2023-12-09T03:07:21.437Z,28.13
2023-12-09T03:11:24.686Z,32.67
2023-12-09T03:15:29.243Z,29.88
2023-12-09T03:19:32.427Z,28.63
2023-12-09T03:23:35.595Z,26.50
2023-12-09T03:27:38.762Z,30.08
2023-12-09T03:31:43.381Z,28.60
2023-12-09T03:35:46.389Z,26.95
2023-12-09T03:39:49.458Z,27.08
2023-12-09T03:43:52.559Z,28.02
2023-12-09T03:47:57.347Z,23.98
2023-12-09T03:52:00.581Z,25.67
2023-12-09T03:56:04.689Z,26.27
2023-12-09T04:00:10.779Z,26.10
2023-12-09T04:04:15.287Z,19.63
2023-12-09T04:08:18.446Z,21.25
2023-12-09T04:12:21.551Z,24.13
2023-12-09T04:16:24.626Z,24.50
2023-12-09T04:20:29.386Z,26.25
2023-12-09T04:24:32.937Z,25.98
2023-12-09T04:28:36.169Z,25.92
2023-12-09T04:32:39.315Z,24.75
2023-12-09T04:36:43.793Z,29.10
2023-12-09T04:40:46.816Z,26.65
2023-12-09T04:44:49.884Z,26.10
2023-12-09T04:48:52.968Z,24.00
2023-12-09T04:52:57.462Z,27.58
2023-12-09T04:57:00.576Z,25.30
2023-12-09T05:01:06.191Z,24.13
2023-12-09T05:05:09.718Z,22.67
2023-12-09T05:09:15.222Z,21.42
2023-12-09T05:13:18.340Z,20.40
2023-12-09T05:17:21.357Z,20.98
2023-12-09T05:21:35.040Z,20.75
2023-12-09T05:25:40.929Z,25.13
2023-12-09T05:29:44.770Z,21.67
2023-12-09T05:33:47.979Z,23.08
2023-12-09T05:37:51.158Z,24.35
2023-12-09T05:41:55.608Z,25.55
2023-12-09T05:45:59.112Z,23.92
2023-12-09T05:50:02.930Z,23.13
2023-12-09T05:54:06.459Z,23.33
2023-12-09T05:58:10.980Z,25.25
2023-12-09T06:02:14.329Z,23.13
2023-12-09T06:06:17.845Z,22.35
2023-12-09T06:10:21.126Z,23.17
2023-12-09T06:14:25.560Z,25.48
2023-12-09T06:18:28.670Z,26.75
2023-12-09T06:22:31.853Z,24.27
2023-12-09T06:26:34.924Z,23.30
2023-12-09T06:30:39.302Z,26.42
2023-12-09T06:34:42.567Z,24.17
2023-12-09T06:38:45.665Z,25.00
2023-12-09T06:42:48.771Z,25.02
2023-12-09T06:46:53.202Z,24.73
2023-12-09T06:50:56.282Z,23.70
2023-12-09T06:54:59.363Z,27.83
2023-12-09T06:59:02.336Z,25.55
2023-12-09T07:03:07.174Z,27.83
2023-12-09T07:07:21.857Z,25.38
2023-12-09T07:11:25.861Z,27.27
2023-12-09T07:15:29.010Z,24.73
2023-12-09T07:19:33.622Z,25.73
2023-12-09T07:23:37.193Z,26.35
2023-12-09T07:27:40.250Z,23.73
2023-12-09T07:31:43.465Z,23.15
2023-12-09T07:35:47.857Z,28.52
2023-12-09T07:39:51.317Z,27.75
2023-12-09T07:43:54.495Z,28.95
2023-12-09T07:47:57.778Z,30.73
2023-12-09T07:52:02.379Z,26.25
2023-12-09T07:56:07.323Z,30.58
2023-12-09T08:00:12.219Z,26.88
2023-12-09T08:04:16.220Z,27.13
2023-12-09T08:08:20.789Z,23.52
2023-12-09T08:12:23.990Z,25.75
2023-12-09T08:16:27.133Z,25.35
2023-12-09T08:20:30.171Z,23.30
2023-12-09T08:24:34.945Z,23.05
2023-12-09T08:28:38.113Z,26.95
2023-12-09T08:32:42.730Z,27.52
2023-12-09T08:37:12.114Z,23.70
2023-12-09T10:23:34.633Z,21.17
2023-12-09T10:55:09.784Z,21.60
2023-12-09T10:59:27.841Z,19.50
2023-12-09T11:03:48.493Z,20.63
2023-12-09T11:13:08.144Z,53.47
2023-12-09T11:17:34.716Z,17.65
2023-12-09T11:21:54.250Z,17.92
2023-12-09T11:26:15.682Z,19.27
2023-12-09T11:30:34.794Z,18.63
2023-12-09T11:44:29.641Z,16.35
2023-12-09T12:00:15.068Z,16.30
2023-12-09T12:05:17.008Z,17.05
2023-12-09T12:09:21.644Z,44.97
2023-12-09T12:32:09.171Z,14.80
2023-12-09T12:36:59.858Z,14.07
2023-12-09T13:22:46.085Z,11.80
2023-12-09T13:27:04.451Z,12.85
2023-12-09T13:31:26.485Z,11.40
2023-12-09T13:35:38.131Z,14.60
2023-12-09T13:40:26.158Z,9.63
2023-12-09T13:44:30.759Z,9.88
2023-12-09T13:48:34.377Z,6.57
2023-12-09T13:52:38.041Z,7.15
2023-12-09T13:56:41.402Z,9.07
2023-12-09T14:00:49.663Z,6.50
2023-12-09T14:04:53.731Z,45.67
2023-12-09T14:09:13.195Z,13.43
2023-12-09T14:13:16.538Z,11.90
2023-12-09T14:17:21.080Z,14.57
2023-12-09T14:39:19.904Z,13.80
2023-12-09T14:43:27.478Z,48.70
2023-12-09T14:47:30.879Z,11.13
2023-12-09T14:51:40.952Z,10.23
2023-12-09T15:07:55.184Z,6.87
2023-12-09T15:12:01.912Z,4.63
2023-12-09T15:16:07.642Z,5.68
2023-12-09T15:20:11.554Z,12.98
2023-12-09T15:24:16.106Z,4.95
2023-12-09T15:28:21.416Z,4.57
2023-12-09T15:32:26.287Z,4.38
2023-12-09T15:36:29.803Z,2.38
2023-12-09T15:40:34.209Z,6.60
2023-12-09T15:44:37.298Z,5.32
2023-12-09T15:48:41.220Z,6.13
2023-12-09T15:52:45.333Z,4.93
2023-12-09T15:56:50.169Z,5.78
2023-12-09T16:00:53.518Z,2.25
2023-12-09T16:04:56.718Z,2.70
2023-12-09T16:08:59.812Z,6.28
2023-12-09T16:13:04.802Z,3.03
2023-12-09T16:17:08.020Z,3.20
2023-12-09T16:21:11.122Z,3.25
2023-12-09T16:25:14.351Z,4.18
2023-12-09T16:29:18.775Z,5.53
2023-12-09T16:33:21.996Z,5.32
2023-12-09T16:37:25.723Z,4.88
2023-12-09T16:41:28.750Z,3.47
2023-12-09T16:45:33.271Z,2.78
2023-12-09T16:49:36.628Z,3.42
2023-12-09T16:53:39.691Z,5.00
2023-12-09T16:57:43.129Z,3.15
2023-12-09T17:01:48.272Z,5.75
2023-12-09T17:05:51.413Z,5.32
2023-12-09T17:09:54.447Z,6.40
2023-12-09T17:13:57.507Z,6.38
2023-12-09T17:18:02.323Z,3.97
2023-12-09T17:22:05.974Z,7.13
2023-12-09T17:26:09.522Z,5.18
2023-12-09T17:30:16.041Z,5.57
2023-12-09T17:34:20.726Z,3.83
2023-12-09T17:38:23.930Z,2.95
2023-12-09T17:42:27.212Z,3.20
2023-12-09T17:46:30.458Z,5.85
2023-12-09T17:50:34.865Z,2.65
2023-12-09T17:54:37.988Z,4.50
2023-12-09T17:58:43.322Z,5.00
2023-12-09T18:02:46.657Z,5.30
2023-12-09T18:06:51.226Z,4.53
2023-12-09T18:10:54.304Z,4.95
2023-12-09T18:14:57.312Z,2.92
2023-12-09T18:19:00.458Z,2.72
2023-12-09T18:23:04.910Z,4.65
2023-12-09T18:27:09.311Z,6.40
2023-12-09T18:31:12.432Z,18.50
2023-12-09T18:35:16.647Z,8.85
2023-12-09T18:39:22.687Z,6.88
2023-12-09T18:43:25.928Z,4.63
2023-12-09T18:47:30.634Z,4.95
2023-12-09T18:51:34.549Z,6.53
2023-12-09T18:55:39.000Z,9.52
2023-12-09T18:59:43.093Z,7.28
2023-12-09T19:03:46.258Z,6.68
2023-12-09T19:07:49.375Z,6.43
2023-12-09T19:11:53.993Z,10.45
2023-12-09T19:15:57.040Z,11.68
2023-12-09T19:20:00.515Z,10.00
2023-12-09T19:24:03.716Z,7.18
2023-12-09T19:28:10.948Z,12.52
2023-12-09T19:32:15.892Z,11.63
2023-12-09T19:36:20.996Z,17.63
2023-12-09T19:40:24.179Z,16.85
2023-12-09T19:44:37.560Z,7.45
2023-12-09T19:48:40.777Z,21.52
2023-12-09T19:52:44.407Z,7.78
2023-12-09T19:56:47.484Z,8.35
2023-12-09T20:00:55.853Z,9.95
2023-12-09T20:04:59.093Z,6.65
2023-12-09T20:13:28.972Z,3.58
2023-12-09T20:17:36.393Z,4.78
2023-12-09T20:21:39.476Z,7.38
2023-12-09T20:25:42.714Z,2.13
2023-12-09T20:29:47.458Z,4.55
2023-12-09T20:33:52.109Z,3.53
2023-12-09T20:37:55.393Z,10.20
2023-12-09T20:41:58.484Z,3.53
2023-12-09T20:46:02.364Z,5.63
2023-12-09T20:50:08.410Z,5.47
2023-12-09T20:54:11.885Z,5.78
2023-12-09T20:58:15.496Z,3.63
2023-12-09T21:02:18.809Z,1.83
2023-12-09T21:06:23.306Z,3.22
2023-12-09T21:10:27.404Z,6.32
2023-12-09T21:14:30.458Z,3.65
2023-12-09T21:18:33.567Z,11.60
2023-12-09T21:22:38.965Z,8.55
2023-12-09T21:26:42.046Z,8.02
2023-12-09T21:30:45.164Z,8.68
2023-12-09T21:34:49.926Z,6.43
2023-12-09T21:38:54.623Z,4.93
2023-12-09T21:42:57.751Z,4.20
2023-12-09T21:47:00.885Z,3.80
2023-12-09T21:51:06.511Z,3.30
2023-12-09T21:55:12.715Z,2.72
2023-12-09T21:59:15.725Z,2.17
2023-12-09T22:03:18.842Z,0.77
2023-12-09T22:07:24.588Z,2.42
2023-12-09T22:11:29.063Z,1.88
2023-12-09T22:15:32.127Z,2.22
2023-12-09T22:19:35.239Z,4.63
2023-12-09T22:23:43.578Z,2.00
2023-12-09T22:27:48.041Z,3.92
2023-12-09T22:31:51.095Z,4.18
2023-12-09T22:35:56.030Z,3.30
2023-12-09T22:39:59.760Z,2.17
2023-12-09T22:44:04.275Z,2.38
2023-12-09T22:48:14.918Z,4.53
2023-12-09T22:52:18.214Z,5.53
2023-12-09T22:56:22.268Z,5.85
2023-12-09T23:00:33.520Z,11.43
2023-12-09T23:04:38.586Z,6.55
2023-12-09T23:08:45.166Z,5.78
2023-12-09T23:12:48.430Z,8.43
2023-12-09T23:16:55.187Z,25.50
2023-12-09T23:20:58.711Z,9.65
2023-12-09T23:25:01.794Z,18.75
2023-12-09T23:29:10.334Z,12.02
2023-12-09T23:33:14.942Z,15.07
2023-12-09T23:37:18.052Z,11.50
2023-12-09T23:41:22.660Z,19.00
2023-12-09T23:45:25.805Z,13.02
2023-12-09T23:49:30.368Z,16.88
2023-12-09T23:53:33.486Z,15.13
2023-12-09T23:57:39.727Z,12.00
